createdAt,value
2017-10-13T00:00:45.319Z,13.13
2017-10-13T00:03:12.882Z,16.93
2017-10-13T00:05:40.438Z,4.03
2017-10-13T00:08:08.009Z,9.70
2017-10-13T00:10:35.567Z,10.70
2017-10-13T00:13:03.088Z,10.43
2017-10-13T00:15:30.636Z,10.13
2017-10-13T00:17:58.146Z,11.63
2017-10-13T00:20:25.710Z,12.10
2017-10-13T00:22:53.260Z,12.73
2017-10-13T00:25:20.779Z,13.13
2017-10-13T00:27:48.382Z,17.30
2017-10-13T00:30:15.902Z,19.10
2017-10-13T00:32:43.423Z,10.77
2017-10-13T00:35:10.966Z,13.40
2017-10-13T00:37:38.492Z,17.13
2017-10-13T00:40:06.008Z,23.43
2017-10-13T00:42:33.571Z,18.33
2017-10-13T00:45:01.095Z,14.87
2017-10-13T00:47:28.645Z,14.80
2017-10-13T00:49:56.220Z,8.80
2017-10-13T00:52:23.762Z,11.63
2017-10-13T00:54:51.323Z,15.40
2017-10-13T00:57:18.864Z,6.80
2017-10-13T00:59:46.448Z,15.33
2017-10-13T01:02:13.994Z,9.53
2017-10-13T01:04:41.518Z,11.63
2017-10-13T01:07:09.086Z,10.50
2017-10-13T01:09:36.599Z,6.97
2017-10-13T01:12:04.120Z,7.70
2017-10-13T01:14:31.676Z,20.43
2017-10-13T01:16:59.259Z,8.60
2017-10-13T01:19:26.781Z,10.10
2017-10-13T01:21:54.368Z,11.13
2017-10-13T01:24:21.931Z,8.80
2017-10-13T01:26:49.438Z,9.17
2017-10-13T01:29:17.014Z,16.53
2017-10-13T01:31:44.618Z,8.53
2017-10-13T01:34:12.132Z,11.90
2017-10-13T01:36:39.700Z,9.90
2017-10-13T01:39:07.220Z,15.23
2017-10-13T01:41:34.957Z,9.53
2017-10-13T01:44:02.520Z,10.03
2017-10-13T01:46:30.031Z,7.73
2017-10-13T01:48:57.539Z,7.40
2017-10-13T01:51:25.085Z,12.37
2017-10-13T01:53:52.596Z,4.43
2017-10-13T01:56:20.147Z,8.43
2017-10-13T01:58:47.766Z,5.63
2017-10-13T02:01:15.292Z,8.77
2017-10-13T02:03:42.883Z,14.23
2017-10-13T02:06:10.442Z,9.17
2017-10-13T02:08:37.958Z,8.20
2017-10-13T02:11:05.525Z,12.43
2017-10-13T02:13:33.044Z,8.10
2017-10-13T02:16:00.556Z,6.50
2017-10-13T02:18:28.100Z,24.80
2017-10-13T02:20:55.616Z,15.77
2017-10-13T02:23:23.163Z,6.50
2017-10-13T02:25:50.739Z,20.37
2017-10-13T02:28:18.260Z,7.67
2017-10-13T02:30:45.777Z,10.90
2017-10-13T02:33:13.323Z,8.60
2017-10-13T02:35:40.845Z,16.00
2017-10-13T02:38:08.410Z,20.33
2017-10-13T02:40:35.971Z,7.67
2017-10-13T02:43:03.491Z,9.30
2017-10-13T02:45:31.184Z,7.97
2017-10-13T02:47:58.702Z,12.07
2017-10-13T02:50:26.223Z,11.10
2017-10-13T02:52:53.776Z,7.30
2017-10-13T02:55:21.316Z,6.53
2017-10-13T02:57:48.835Z,10.27
2017-10-13T03:00:16.435Z,6.83
2017-10-13T03:02:43.951Z,10.90
2017-10-13T03:05:11.563Z,8.63
2017-10-13T03:07:39.084Z,16.77
2017-10-13T03:10:06.616Z,11.33
2017-10-13T03:12:34.181Z,10.77
2017-10-13T03:15:01.744Z,6.47
2017-10-13T03:17:29.351Z,7.60
2017-10-13T03:19:57.018Z,12.33
2017-10-13T03:22:24.575Z,8.47
2017-10-13T03:24:52.092Z,13.53
2017-10-13T03:27:19.657Z,7.27
2017-10-13T03:29:47.171Z,8.83
2017-10-13T03:32:14.692Z,14.13
2017-10-13T03:34:42.252Z,7.43
2017-10-13T03:37:09.830Z,11.77
2017-10-13T03:39:37.349Z,8.63
2017-10-13T03:42:04.920Z,12.60
2017-10-13T03:44:32.432Z,12.23
2017-10-13T03:46:59.966Z,10.17
2017-10-13T03:49:27.523Z,11.70
2017-10-13T03:51:55.096Z,10.47
2017-10-13T03:54:22.666Z,20.47
2017-10-13T03:56:50.202Z,15.90
2017-10-13T03:59:17.751Z,13.23
2017-10-13T04:01:45.419Z,10.93
2017-10-13T04:04:12.937Z,21.10
2017-10-13T04:06:40.488Z,9.07
2017-10-13T04:09:08.101Z,8.20
2017-10-13T04:11:35.834Z,18.90
2017-10-13T04:14:03.423Z,9.13
2017-10-13T04:16:30.978Z,13.40
2017-10-13T04:18:58.533Z,13.33
2017-10-13T04:21:26.099Z,17.33
2017-10-13T04:23:53.673Z,10.37
2017-10-13T04:26:21.191Z,10.20
2017-10-13T04:28:48.740Z,9.00
2017-10-13T04:31:16.345Z,8.80
2017-10-13T04:33:43.896Z,9.10
2017-10-13T04:36:11.412Z,20.70
2017-10-13T04:38:38.973Z,19.43
2017-10-13T04:41:06.492Z,16.97
2017-10-13T04:43:34.134Z,14.73
2017-10-13T04:46:01.763Z,9.47
2017-10-13T04:48:29.279Z,12.83
2017-10-13T04:50:56.815Z,38.37
2017-10-13T04:53:24.371Z,16.80
2017-10-13T04:55:51.963Z,12.73
2017-10-13T04:58:19.476Z,10.63
2017-10-13T05:00:46.999Z,10.67
2017-10-13T05:03:14.559Z,24.87
2017-10-13T05:05:42.177Z,37.53
2017-10-13T05:08:09.712Z,28.13
2017-10-13T05:10:37.238Z,10.10
2017-10-13T05:13:04.729Z,10.90
2017-10-13T05:15:32.280Z,8.23
2017-10-13T05:17:59.842Z,15.53
2017-10-13T05:20:27.399Z,13.47
2017-10-13T05:22:54.914Z,14.83
2017-10-13T05:25:22.529Z,18.37
2017-10-13T05:27:50.023Z,18.17
2017-10-13T05:30:17.534Z,23.33
2017-10-13T05:32:45.064Z,17.57
2017-10-13T05:35:12.548Z,9.70
2017-10-13T05:37:40.114Z,14.67
2017-10-13T05:40:07.665Z,13.20
2017-10-13T05:42:35.157Z,26.17
2017-10-13T05:45:02.676Z,22.33
2017-10-13T05:47:30.195Z,30.17
2017-10-13T05:49:57.695Z,14.87
2017-10-13T05:52:25.225Z,18.87
2017-10-13T05:54:52.720Z,13.20
2017-10-13T05:57:20.212Z,22.37
2017-10-13T05:59:47.726Z,19.97
2017-10-13T06:02:15.214Z,13.07
2017-10-13T06:04:42.769Z,26.97
2017-10-13T06:07:10.266Z,19.07
2017-10-13T06:09:37.757Z,22.80
2017-10-13T06:12:05.325Z,16.03
2017-10-13T06:14:32.820Z,23.67
2017-10-13T06:17:00.303Z,18.30
2017-10-13T06:19:27.842Z,24.37
2017-10-13T06:21:55.335Z,12.40
2017-10-13T06:24:22.821Z,17.00
2017-10-13T06:26:50.371Z,23.10
2017-10-13T06:29:17.860Z,21.30
2017-10-13T06:31:45.407Z,22.40
2017-10-13T06:34:12.894Z,12.97
2017-10-13T06:36:40.391Z,14.20
2017-10-13T06:39:07.922Z,11.57
2017-10-13T06:41:36.328Z,20.30
2017-10-13T06:44:03.820Z,19.47
2017-10-13T06:46:31.379Z,15.70
2017-10-13T06:48:58.941Z,14.33
2017-10-13T06:51:26.478Z,15.67
2017-10-13T06:53:53.973Z,27.40
2017-10-13T06:56:21.509Z,14.33
2017-10-13T06:58:49.001Z,40.10
2017-10-13T07:01:16.483Z,16.90
2017-10-13T07:03:44.020Z,22.07
2017-10-13T07:06:11.526Z,13.43
2017-10-13T07:08:39.016Z,15.90
2017-10-13T07:11:06.569Z,12.23
2017-10-13T07:13:34.058Z,15.70
2017-10-13T07:16:01.560Z,17.20
2017-10-13T07:18:29.119Z,12.63
2017-10-13T07:20:56.616Z,17.10
2017-10-13T07:23:24.134Z,10.53
2017-10-13T07:25:51.671Z,19.93
2017-10-13T07:28:19.221Z,15.83
2017-10-13T07:30:46.709Z,33.40
2017-10-13T07:33:14.240Z,8.37
2017-10-13T07:35:41.726Z,17.93
2017-10-13T07:38:09.289Z,8.67
2017-10-13T07:40:36.849Z,13.23
2017-10-13T07:43:04.335Z,11.10
2017-10-13T07:45:31.821Z,15.53
2017-10-13T07:47:59.372Z,23.23
2017-10-13T07:50:26.863Z,20.50
2017-10-13T07:52:54.351Z,18.23
2017-10-13T07:55:21.868Z,12.63
2017-10-13T07:57:49.422Z,20.47
2017-10-13T08:00:17.008Z,16.13
2017-10-13T08:02:44.593Z,14.83
2017-10-13T08:05:12.136Z,13.13
2017-10-13T08:07:39.619Z,16.43
2017-10-13T08:10:07.144Z,12.10
2017-10-13T08:12:34.633Z,21.50
2017-10-13T08:15:02.116Z,14.17
2017-10-13T08:17:29.655Z,20.27
2017-10-13T08:19:57.145Z,14.30
2017-10-13T08:22:24.640Z,16.53
2017-10-13T08:24:52.198Z,11.70
2017-10-13T08:27:19.699Z,26.33
2017-10-13T08:29:47.217Z,17.27
2017-10-13T08:32:14.753Z,17.97
2017-10-13T08:34:42.248Z,16.57
2017-10-13T08:37:09.730Z,17.07
2017-10-13T08:39:37.352Z,15.50
2017-10-13T08:42:04.909Z,12.73
2017-10-13T08:44:32.396Z,16.60
2017-10-13T08:47:00.026Z,17.60
2017-10-13T08:49:27.691Z,31.00
2017-10-13T08:51:55.256Z,18.80
2017-10-13T08:54:22.751Z,19.40
2017-10-13T08:56:50.233Z,12.33
2017-10-13T08:59:17.783Z,18.50
2017-10-13T09:01:45.271Z,17.90
2017-10-13T09:04:12.767Z,10.43
2017-10-13T09:06:40.309Z,12.50
2017-10-13T09:09:07.795Z,12.03
2017-10-13T09:11:36.036Z,16.43
2017-10-13T09:14:03.580Z,17.80
2017-10-13T09:16:31.073Z,18.43
2017-10-13T09:18:58.562Z,19.00
2017-10-13T09:21:26.093Z,13.97
2017-10-13T09:23:53.583Z,30.13
2017-10-13T09:26:21.062Z,15.40
2017-10-13T09:28:48.580Z,18.97
2017-10-13T09:31:16.199Z,17.00
2017-10-13T09:33:43.748Z,22.07
2017-10-13T09:36:11.235Z,19.27
2017-10-13T09:38:38.740Z,17.27
2017-10-13T09:41:06.323Z,24.70
2017-10-13T09:43:33.807Z,25.70
2017-10-13T09:46:01.296Z,15.90
2017-10-13T09:48:28.819Z,12.23
2017-10-13T09:50:56.382Z,24.33
2017-10-13T09:53:23.860Z,22.00
2017-10-13T09:55:51.348Z,22.20
2017-10-13T09:58:18.904Z,18.70
2017-10-13T10:00:46.394Z,19.93
2017-10-13T10:03:13.876Z,17.17
2017-10-13T10:05:41.417Z,23.27
2017-10-13T10:08:08.919Z,17.83
2017-10-13T10:10:36.404Z,21.70
2017-10-13T10:13:03.943Z,17.63
2017-10-13T10:15:31.421Z,16.63
2017-10-13T10:17:59.013Z,14.40
2017-10-13T10:20:26.547Z,11.13
2017-10-13T10:22:54.044Z,20.53
2017-10-13T10:25:21.531Z,11.73
2017-10-13T10:27:49.145Z,20.33
2017-10-13T10:30:16.635Z,21.60
2017-10-13T10:32:44.187Z,18.47
2017-10-13T10:35:11.684Z,17.43
2017-10-13T10:37:39.171Z,17.47
2017-10-13T10:40:06.729Z,17.13
2017-10-13T10:42:34.229Z,17.60
2017-10-13T10:45:01.711Z,20.60
2017-10-13T10:47:29.272Z,12.13
2017-10-13T10:49:56.781Z,18.00
2017-10-13T10:52:24.259Z,9.73
2017-10-13T10:54:51.787Z,19.40
2017-10-13T10:57:19.289Z,15.47
2017-10-13T10:59:46.780Z,16.07
2017-10-13T11:02:14.309Z,19.40
2017-10-13T11:04:41.833Z,23.10
2017-10-13T11:07:09.333Z,12.23
2017-10-13T11:09:36.859Z,11.70
2017-10-13T11:12:04.345Z,13.70
2017-10-13T11:14:31.832Z,11.03
2017-10-13T11:16:59.367Z,17.00
2017-10-13T11:19:26.871Z,10.67
2017-10-13T11:21:54.360Z,11.97
2017-10-13T11:24:21.903Z,13.03
2017-10-13T11:26:49.393Z,7.40
2017-10-13T11:29:16.889Z,14.17
2017-10-13T11:31:44.408Z,11.20
2017-10-13T11:34:11.900Z,11.20
2017-10-13T11:36:39.438Z,18.30
2017-10-13T11:39:06.951Z,14.60
2017-10-13T11:41:34.522Z,16.60
2017-10-13T11:44:02.164Z,11.27
2017-10-13T11:46:29.648Z,13.47
2017-10-13T11:48:57.186Z,16.50
2017-10-13T11:51:24.729Z,14.60
2017-10-13T11:53:52.224Z,13.70
2017-10-13T11:56:19.708Z,8.73
2017-10-13T11:58:47.323Z,16.20
2017-10-13T12:01:14.809Z,11.03
2017-10-13T12:03:42.303Z,19.13
2017-10-13T12:06:09.866Z,19.80
2017-10-13T12:08:37.371Z,17.13
2017-10-13T12:11:04.905Z,15.50
2017-10-13T12:13:32.457Z,14.90
2017-10-13T12:15:59.940Z,9.70
2017-10-13T12:18:27.473Z,10.67
2017-10-13T12:20:54.979Z,16.80
2017-10-13T12:23:22.475Z,11.73
2017-10-13T12:25:50.026Z,20.40
2017-10-13T12:28:17.516Z,18.30
2017-10-13T12:30:45.009Z,18.93
2017-10-13T12:33:12.556Z,19.53
2017-10-13T12:35:40.082Z,18.23
2017-10-13T12:38:07.577Z,15.67
2017-10-13T12:40:35.108Z,18.47
2017-10-13T12:43:02.596Z,17.93
2017-10-13T12:45:30.127Z,20.50
2017-10-13T12:47:57.619Z,13.63
2017-10-13T12:50:25.227Z,19.97
2017-10-13T12:52:52.729Z,10.53
2017-10-13T12:55:20.215Z,13.70
2017-10-13T12:57:47.754Z,25.43
2017-10-13T13:00:15.238Z,16.40
2017-10-13T13:02:42.721Z,17.23
2017-10-13T13:05:10.280Z,12.63
2017-10-13T13:07:37.850Z,28.80
2017-10-13T13:10:05.387Z,20.53
2017-10-13T13:12:32.974Z,19.13
2017-10-13T13:15:00.518Z,10.37
2017-10-13T13:17:28.017Z,24.53
2017-10-13T13:19:55.553Z,18.83
2017-10-13T13:22:23.048Z,25.83
2017-10-13T13:24:50.532Z,18.80
2017-10-13T13:27:18.051Z,19.63
2017-10-13T13:29:45.579Z,22.30
2017-10-13T13:32:13.124Z,18.03
2017-10-13T13:34:40.622Z,15.67
2017-10-13T13:37:08.235Z,16.03
2017-10-13T13:39:35.720Z,18.03
2017-10-13T13:42:03.219Z,24.83
2017-10-13T13:44:30.750Z,21.83
2017-10-13T13:46:58.238Z,19.83
2017-10-13T13:49:25.775Z,19.37
2017-10-13T13:51:53.263Z,15.67
2017-10-13T13:54:20.821Z,21.00
2017-10-13T13:56:48.399Z,15.40
2017-10-13T13:59:15.970Z,21.87
2017-10-13T14:01:43.494Z,17.47
2017-10-13T14:04:11.092Z,18.67
2017-10-13T14:06:38.587Z,11.83
2017-10-13T14:09:06.097Z,18.47
2017-10-13T14:11:33.636Z,20.37
2017-10-13T14:14:01.118Z,17.27
2017-10-13T14:16:28.605Z,16.77
2017-10-13T14:18:56.149Z,36.63
2017-10-13T14:21:23.652Z,16.00
2017-10-13T14:23:51.147Z,17.50
2017-10-13T14:26:18.679Z,20.47
2017-10-13T14:28:46.180Z,22.03
2017-10-13T14:31:13.667Z,19.43
2017-10-13T14:33:41.193Z,24.10
2017-10-13T14:36:08.702Z,14.83
2017-10-13T14:38:36.193Z,29.67
2017-10-13T14:41:03.733Z,23.37
2017-10-13T14:43:31.235Z,19.83
2017-10-13T14:45:58.780Z,13.40
2017-10-13T14:48:26.340Z,17.17
2017-10-13T14:50:53.876Z,13.03
2017-10-13T14:53:21.369Z,18.63
2017-10-13T14:55:48.852Z,24.40
2017-10-13T14:58:16.412Z,15.77
2017-10-13T15:00:43.924Z,25.63
2017-10-13T15:03:11.420Z,18.70
2017-10-13T15:05:38.945Z,21.27
2017-10-13T15:08:06.445Z,21.60
2017-10-13T15:10:33.972Z,31.73
2017-10-13T15:13:01.503Z,15.70
2017-10-13T15:15:29.059Z,21.13
2017-10-13T15:17:56.551Z,27.87
2017-10-13T15:20:24.108Z,16.53
2017-10-13T15:22:51.658Z,13.30
2017-10-13T15:25:24.807Z,29.07
2017-10-13T15:27:58.094Z,19.13
2017-10-13T15:30:31.273Z,21.10
2017-10-13T15:33:04.460Z,30.10
2017-10-13T15:35:37.694Z,17.30
2017-10-13T15:38:11.711Z,23.23
2017-10-13T15:40:44.805Z,28.30
2017-10-13T15:43:18.092Z,21.47
2017-10-13T15:45:51.195Z,22.53
2017-10-13T15:48:24.422Z,10.30
2017-10-13T15:50:57.601Z,21.80
2017-10-13T15:53:25.135Z,17.97
2017-10-13T15:55:52.695Z,20.63
2017-10-13T15:58:20.194Z,25.97
2017-10-13T16:00:47.820Z,27.83
2017-10-13T16:03:15.352Z,29.80
2017-10-13T16:05:42.944Z,28.67
2017-10-13T16:08:10.432Z,27.33
2017-10-13T16:10:38.128Z,31.20
2017-10-13T16:13:05.635Z,30.00
2017-10-13T16:15:33.177Z,27.57
2017-10-13T16:18:00.672Z,34.53
2017-10-13T16:20:28.172Z,26.90
2017-10-13T16:25:29.555Z,23.60
2017-10-13T16:27:57.218Z,43.57
2017-10-13T16:30:24.707Z,25.27
2017-10-13T16:32:52.196Z,20.33
2017-10-13T16:35:19.889Z,26.53
2017-10-13T16:37:47.388Z,26.53
2017-10-13T16:40:14.873Z,28.03
2017-10-13T16:42:42.412Z,21.17
2017-10-13T16:45:09.907Z,42.57
2017-10-13T16:47:37.395Z,32.53
2017-10-13T16:50:04.943Z,29.90
2017-10-13T16:52:32.520Z,33.47
2017-10-13T16:55:00.063Z,22.97
2017-10-13T16:57:27.600Z,29.40
2017-10-13T16:59:55.083Z,27.10
2017-10-13T17:02:22.578Z,29.93
2017-10-13T17:04:50.129Z,29.47
2017-10-13T17:07:17.656Z,25.27
2017-10-13T17:09:45.147Z,26.53
2017-10-13T17:12:12.687Z,34.47
2017-10-13T17:14:40.349Z,23.53
2017-10-13T17:17:07.851Z,24.73
2017-10-13T17:19:35.437Z,33.50
2017-10-13T17:22:02.925Z,36.47
2017-10-13T17:24:30.416Z,27.13
2017-10-13T17:26:57.949Z,32.50
2017-10-13T17:29:25.443Z,29.03
2017-10-13T17:31:52.937Z,36.97
2017-10-13T17:34:20.481Z,29.97
2017-10-13T17:36:47.967Z,33.93
2017-10-13T17:39:15.470Z,25.87
2017-10-13T17:41:43.079Z,25.30
2017-10-13T17:44:10.653Z,22.23
2017-10-13T17:46:38.152Z,22.40
2017-10-13T17:49:05.704Z,33.63
2017-10-13T17:51:33.215Z,35.23
2017-10-13T17:54:00.733Z,58.43
2017-10-13T17:56:28.278Z,33.77
2017-10-13T17:58:55.792Z,33.37
2017-10-13T18:01:23.296Z,35.00
2017-10-13T18:03:50.906Z,31.13
2017-10-13T18:06:18.484Z,31.97
2017-10-13T18:08:46.165Z,29.53
2017-10-13T18:11:13.652Z,22.80
2017-10-13T18:13:41.244Z,29.17
2017-10-13T18:16:08.780Z,36.00
2017-10-13T18:18:36.316Z,36.47
2017-10-13T18:21:03.832Z,28.77
2017-10-13T18:23:31.323Z,41.30
2017-10-13T18:25:58.864Z,29.27
2017-10-13T18:28:26.362Z,31.23
2017-10-13T18:30:53.910Z,35.67
2017-10-13T18:33:21.452Z,49.57
2017-10-13T18:35:48.977Z,27.43
2017-10-13T18:38:16.536Z,32.10
2017-10-13T18:40:44.095Z,35.77
2017-10-13T18:43:11.657Z,31.27
2017-10-13T18:45:39.208Z,30.73
2017-10-13T18:48:06.771Z,30.87
2017-10-13T18:50:34.268Z,30.20
2017-10-13T18:53:01.788Z,37.60
2017-10-13T18:55:29.352Z,23.13
2017-10-13T18:57:56.849Z,20.83
2017-10-13T19:00:24.340Z,25.43
2017-10-13T19:02:51.938Z,30.83
2017-10-13T19:05:19.448Z,26.90
2017-10-13T19:07:46.968Z,22.80
2017-10-13T19:10:14.505Z,30.97
2017-10-13T19:12:42.007Z,38.03
2017-10-13T19:15:09.501Z,30.33
2017-10-13T19:17:37.074Z,39.47
2017-10-13T19:20:04.600Z,40.40
2017-10-13T19:22:32.096Z,25.23
2017-10-13T19:24:59.594Z,31.23
2017-10-13T19:27:27.144Z,28.67
2017-10-13T19:29:54.644Z,33.50
2017-10-13T19:32:22.139Z,27.03
2017-10-13T19:34:49.679Z,33.80
2017-10-13T19:37:17.174Z,30.23
2017-10-13T19:39:44.696Z,21.30
2017-10-13T19:42:12.245Z,37.33
2017-10-13T19:44:39.748Z,89.30
2017-10-13T19:47:07.237Z,80.27
2017-10-13T19:49:34.935Z,59.10
2017-10-13T19:52:02.427Z,69.27
2017-10-13T19:54:29.925Z,89.77
2017-10-13T19:56:57.453Z,63.20
2017-10-13T19:59:24.939Z,41.87
2017-10-13T20:01:52.472Z,42.43
2017-10-13T20:04:19.968Z,58.93
2017-10-13T20:06:47.543Z,50.70
2017-10-13T20:09:15.103Z,74.10
2017-10-13T20:11:42.680Z,95.93
2017-10-13T20:14:10.176Z,51.33
2017-10-13T20:16:37.668Z,81.00
2017-10-13T20:19:05.203Z,45.70
2017-10-13T20:21:32.705Z,72.00
2017-10-13T20:24:00.271Z,70.27
2017-10-13T20:26:27.831Z,45.87
2017-10-13T20:28:55.371Z,56.80
2017-10-13T20:31:22.865Z,56.37
2017-10-13T20:33:50.386Z,40.10
2017-10-13T20:36:17.925Z,71.63
2017-10-13T20:38:46.343Z,72.40
2017-10-13T20:41:13.876Z,91.67
2017-10-13T20:43:41.395Z,72.50
2017-10-13T20:46:08.884Z,84.97
2017-10-13T20:48:36.426Z,40.40
2017-10-13T20:51:04.016Z,71.00
2017-10-13T20:53:31.517Z,44.67
2017-10-13T20:55:59.141Z,46.40
2017-10-13T20:58:26.644Z,63.63
2017-10-13T21:00:54.144Z,40.57
2017-10-13T21:03:21.716Z,48.53
2017-10-13T21:05:49.226Z,110.23
2017-10-13T21:08:16.722Z,35.40
2017-10-13T21:10:44.269Z,50.33
2017-10-13T21:13:11.775Z,125.83
2017-10-13T21:15:39.279Z,56.27
2017-10-13T21:18:06.840Z,64.63
2017-10-13T21:20:34.347Z,94.73
2017-10-13T21:23:01.836Z,71.97
2017-10-13T21:25:29.359Z,80.33
2017-10-13T21:27:56.856Z,36.60
2017-10-13T21:30:24.378Z,35.83
2017-10-13T21:32:51.872Z,57.13
2017-10-13T21:35:19.473Z,38.67
2017-10-13T21:37:46.974Z,64.80
2017-10-13T21:40:14.520Z,63.00
2017-10-13T21:42:42.030Z,151.97
2017-10-13T21:45:09.544Z,107.23
2017-10-13T21:47:37.074Z,104.83
2017-10-13T21:50:04.660Z,54.93
2017-10-13T21:52:32.161Z,50.03
2017-10-13T21:54:59.780Z,74.73
2017-10-13T21:57:27.312Z,113.40
2017-10-13T21:59:54.853Z,81.77
2017-10-13T22:02:22.435Z,52.80
2017-10-13T22:04:55.700Z,94.03
2017-10-13T22:07:23.195Z,52.60
2017-10-13T22:09:50.736Z,79.10
2017-10-13T22:12:18.233Z,47.40
2017-10-13T22:14:45.736Z,35.20
2017-10-13T22:17:13.325Z,50.10
2017-10-13T22:19:40.812Z,75.30
2017-10-13T22:22:08.307Z,66.73
2017-10-13T22:24:35.832Z,46.50
2017-10-13T22:27:03.346Z,63.40
2017-10-13T22:29:30.871Z,58.07
2017-10-13T22:31:58.471Z,40.50
2017-10-13T22:34:26.009Z,122.07
2017-10-13T22:36:53.509Z,104.60
2017-10-13T22:39:21.008Z,101.37
2017-10-13T22:41:48.563Z,177.73
2017-10-13T22:44:16.055Z,77.63
2017-10-13T22:46:43.614Z,73.30
2017-10-13T22:49:11.156Z,107.10
2017-10-13T22:51:38.693Z,77.73
2017-10-13T22:54:06.232Z,53.37
2017-10-13T22:56:33.738Z,38.07
2017-10-13T22:59:01.229Z,48.40
2017-10-13T23:01:28.773Z,44.00
2017-10-13T23:03:56.270Z,40.13
2017-10-13T23:06:23.776Z,34.80
2017-10-13T23:08:51.312Z,49.97
2017-10-13T23:11:18.898Z,55.50
2017-10-13T23:13:46.404Z,42.97
2017-10-13T23:16:13.939Z,37.20
2017-10-13T23:18:41.429Z,47.33
2017-10-13T23:21:09.029Z,32.37
2017-10-13T23:23:36.589Z,51.10
2017-10-13T23:26:04.090Z,67.13
2017-10-13T23:28:31.595Z,108.87
2017-10-13T23:30:59.168Z,50.43
2017-10-13T23:33:26.746Z,59.30
2017-10-13T23:35:54.244Z,58.80
2017-10-13T23:38:21.780Z,141.03
2017-10-13T23:40:49.278Z,33.33
2017-10-13T23:43:16.780Z,36.83
2017-10-13T23:45:44.318Z,38.00
2017-10-13T23:48:11.878Z,42.20
2017-10-13T23:50:39.378Z,45.60
2017-10-13T23:53:06.996Z,35.67
2017-10-13T23:55:34.494Z,40.73
2017-10-13T23:58:02.047Z,38.10
